sensor_id;sensor_type;location;lat;lon;timestamp;P1;durP1;ratioP1;P2;durP2;ratioP2
17390;SDS011;8813;54.444;18.446;2023-07-02T00:01:56;1.30;;;1.30;;
17390;SDS011;8813;54.444;18.446;2023-07-02T00:04:23;1.20;;;1.20;;
17390;SDS011;8813;54.444;18.446;2023-07-02T00:06:50;1.20;;;1.20;;
17390;SDS011;8813;54.444;18.446;2023-07-02T00:09:17;1.30;;;1.30;;
17390;SDS011;8813;54.444;18.446;2023-07-02T00:11:46;1.40;;;1.40;;
17390;SDS011;8813;54.444;18.446;2023-07-02T00:14:13;1.60;;;1.60;;
17390;SDS011;8813;54.444;18.446;2023-07-02T00:16:42;1.50;;;1.50;;
17390;SDS011;8813;54.444;18.446;2023-07-02T00:19:10;1.70;;;1.70;;
17390;SDS011;8813;54.444;18.446;2023-07-02T00:21:37;1.70;;;1.70;;
17390;SDS011;8813;54.444;18.446;2023-07-02T00:24:05;1.90;;;1.90;;
17390;SDS011;8813;54.444;18.446;2023-07-02T00:26:34;1.80;;;1.80;;
17390;SDS011;8813;54.444;18.446;2023-07-02T00:29:03;1.70;;;1.70;;
17390;SDS011;8813;54.444;18.446;2023-07-02T00:31:31;1.73;;;1.73;;
17390;SDS011;8813;54.444;18.446;2023-07-02T00:33:58;1.85;;;1.85;;
17390;SDS011;8813;54.444;18.446;2023-07-02T00:36:26;2.20;;;2.20;;
17390;SDS011;8813;54.444;18.446;2023-07-02T00:38:53;2.00;;;2.00;;
17390;SDS011;8813;54.444;18.446;2023-07-02T00:41:20;2.42;;;2.42;;
17390;SDS011;8813;54.444;18.446;2023-07-02T00:43:47;2.63;;;2.63;;
17390;SDS011;8813;54.444;18.446;2023-07-02T00:46:16;1.90;;;1.90;;
17390;SDS011;8813;54.444;18.446;2023-07-02T00:48:46;2.10;;;2.10;;
17390;SDS011;8813;54.444;18.446;2023-07-02T00:51:13;2.00;;;2.00;;
17390;SDS011;8813;54.444;18.446;2023-07-02T00:53:41;2.10;;;2.10;;
17390;SDS011;8813;54.444;18.446;2023-07-02T00:56:09;1.90;;;1.90;;
17390;SDS011;8813;54.444;18.446;2023-07-02T00:58:38;2.05;;;2.05;;
17390;SDS011;8813;54.444;18.446;2023-07-02T01:01:06;2.00;;;2.00;;
17390;SDS011;8813;54.444;18.446;2023-07-02T01:03:36;2.40;;;2.40;;
17390;SDS011;8813;54.444;18.446;2023-07-02T01:06:03;2.20;;;2.20;;
17390;SDS011;8813;54.444;18.446;2023-07-02T01:08:30;2.83;;;2.72;;
17390;SDS011;8813;54.444;18.446;2023-07-02T01:10:57;2.50;;;2.50;;
17390;SDS011;8813;54.444;18.446;2023-07-02T01:13:25;2.30;;;2.30;;
17390;SDS011;8813;54.444;18.446;2023-07-02T01:15:52;2.83;;;2.70;;
17390;SDS011;8813;54.444;18.446;2023-07-02T01:18:19;2.30;;;2.30;;
17390;SDS011;8813;54.444;18.446;2023-07-02T01:20:47;2.47;;;2.47;;
17390;SDS011;8813;54.444;18.446;2023-07-02T01:23:14;2.40;;;2.40;;
17390;SDS011;8813;54.444;18.446;2023-07-02T01:25:41;3.00;;;2.90;;
17390;SDS011;8813;54.444;18.446;2023-07-02T01:28:10;2.67;;;2.67;;
17390;SDS011;8813;54.444;18.446;2023-07-02T01:30:39;2.78;;;2.67;;
17390;SDS011;8813;54.444;18.446;2023-07-02T01:33:05;2.70;;;2.70;;
17390;SDS011;8813;54.444;18.446;2023-07-02T01:35:32;2.80;;;2.80;;
17390;SDS011;8813;54.444;18.446;2023-07-02T01:38:01;2.78;;;2.75;;
17390;SDS011;8813;54.444;18.446;2023-07-02T01:40:28;2.40;;;2.40;;
17390;SDS011;8813;54.444;18.446;2023-07-02T01:42:55;2.35;;;2.35;;
17390;SDS011;8813;54.444;18.446;2023-07-02T01:45:22;2.47;;;2.47;;
17390;SDS011;8813;54.444;18.446;2023-07-02T01:47:49;2.40;;;2.40;;
17390;SDS011;8813;54.444;18.446;2023-07-02T01:50:15;2.30;;;2.30;;
17390;SDS011;8813;54.444;18.446;2023-07-02T01:52:42;2.30;;;2.30;;
17390;SDS011;8813;54.444;18.446;2023-07-02T01:55:11;2.60;;;2.60;;
17390;SDS011;8813;54.444;18.446;2023-07-02T01:57:38;2.50;;;2.50;;
17390;SDS011;8813;54.444;18.446;2023-07-02T02:00:05;2.50;;;2.50;;
17390;SDS011;8813;54.444;18.446;2023-07-02T02:02:34;2.60;;;2.60;;
17390;SDS011;8813;54.444;18.446;2023-07-02T02:05:01;2.90;;;2.80;;
17390;SDS011;8813;54.444;18.446;2023-07-02T02:07:27;2.72;;;2.72;;
17390;SDS011;8813;54.444;18.446;2023-07-02T02:09:54;2.50;;;2.50;;
17390;SDS011;8813;54.444;18.446;2023-07-02T02:12:23;2.45;;;2.45;;
17390;SDS011;8813;54.444;18.446;2023-07-02T02:14:50;2.80;;;2.80;;
17390;SDS011;8813;54.444;18.446;2023-07-02T02:17:17;2.63;;;2.63;;
17390;SDS011;8813;54.444;18.446;2023-07-02T02:19:43;3.20;;;3.10;;
17390;SDS011;8813;54.444;18.446;2023-07-02T02:22:10;3.00;;;2.90;;
17390;SDS011;8813;54.444;18.446;2023-07-02T02:24:37;2.85;;;2.85;;
17390;SDS011;8813;54.444;18.446;2023-07-02T02:27:04;3.22;;;3.13;;
17390;SDS011;8813;54.444;18.446;2023-07-02T02:29:32;2.70;;;2.70;;
17390;SDS011;8813;54.444;18.446;2023-07-02T02:31:59;2.75;;;2.75;;
17390;SDS011;8813;54.444;18.446;2023-07-02T02:34:26;3.17;;;3.17;;
17390;SDS011;8813;54.444;18.446;2023-07-02T02:36:54;3.20;;;3.20;;
17390;SDS011;8813;54.444;18.446;2023-07-02T02:39:22;3.70;;;3.60;;
17390;SDS011;8813;54.444;18.446;2023-07-02T02:41:49;4.65;;;4.45;;
17390;SDS011;8813;54.444;18.446;2023-07-02T02:44:16;4.65;;;4.55;;
17390;SDS011;8813;54.444;18.446;2023-07-02T02:46:44;5.20;;;5.10;;
17390;SDS011;8813;54.444;18.446;2023-07-02T02:49:11;5.38;;;5.28;;
17390;SDS011;8813;54.444;18.446;2023-07-02T02:51:38;5.22;;;5.13;;
17390;SDS011;8813;54.444;18.446;2023-07-02T02:54:05;5.60;;;5.50;;
17390;SDS011;8813;54.444;18.446;2023-07-02T02:56:32;5.38;;;5.28;;
17390;SDS011;8813;54.444;18.446;2023-07-02T02:58:59;5.90;;;5.80;;
17390;SDS011;8813;54.444;18.446;2023-07-02T03:01:26;6.00;;;5.90;;
17390;SDS011;8813;54.444;18.446;2023-07-02T03:03:57;5.93;;;5.82;;
17390;SDS011;8813;54.444;18.446;2023-07-02T03:06:25;5.93;;;5.82;;
17390;SDS011;8813;54.444;18.446;2023-07-02T03:08:52;6.00;;;5.90;;
17390;SDS011;8813;54.444;18.446;2023-07-02T03:11:19;7.10;;;6.90;;
17390;SDS011;8813;54.444;18.446;2023-07-02T03:13:46;8.50;;;7.95;;
17390;SDS011;8813;54.444;18.446;2023-07-02T03:16:13;7.47;;;7.28;;
17390;SDS011;8813;54.444;18.446;2023-07-02T03:18:40;7.25;;;7.05;;
17390;SDS011;8813;54.444;18.446;2023-07-02T03:21:08;7.25;;;7.05;;
17390;SDS011;8813;54.444;18.446;2023-07-02T03:23:36;7.10;;;6.90;;
17390;SDS011;8813;54.444;18.446;2023-07-02T03:26:03;7.20;;;7.00;;
17390;SDS011;8813;54.444;18.446;2023-07-02T03:28:29;6.20;;;6.10;;
17390;SDS011;8813;54.444;18.446;2023-07-02T03:30:59;6.25;;;6.15;;
17390;SDS011;8813;54.444;18.446;2023-07-02T03:33:26;5.95;;;5.85;;
17390;SDS011;8813;54.444;18.446;2023-07-02T03:35:52;5.50;;;5.40;;
17390;SDS011;8813;54.444;18.446;2023-07-02T03:38:21;7.00;;;6.80;;
17390;SDS011;8813;54.444;18.446;2023-07-02T03:40:48;6.90;;;6.70;;
17390;SDS011;8813;54.444;18.446;2023-07-02T03:43:14;7.00;;;6.80;;
17390;SDS011;8813;54.444;18.446;2023-07-02T03:45:41;6.90;;;6.70;;
17390;SDS011;8813;54.444;18.446;2023-07-02T03:48:08;7.10;;;6.90;;
17390;SDS011;8813;54.444;18.446;2023-07-02T03:50:35;8.77;;;8.57;;
17390;SDS011;8813;54.444;18.446;2023-07-02T03:53:02;9.10;;;8.90;;
17390;SDS011;8813;54.444;18.446;2023-07-02T03:55:31;8.80;;;8.60;;
17390;SDS011;8813;54.444;18.446;2023-07-02T03:57:57;8.68;;;8.48;;
17390;SDS011;8813;54.444;18.446;2023-07-02T04:00:24;8.20;;;8.00;;
17390;SDS011;8813;54.444;18.446;2023-07-02T04:02:51;8.00;;;7.80;;
17390;SDS011;8813;54.444;18.446;2023-07-02T04:05:18;7.65;;;7.45;;
17390;SDS011;8813;54.444;18.446;2023-07-02T04:07:45;8.48;;;8.18;;
17390;SDS011;8813;54.444;18.446;2023-07-02T04:10:12;8.00;;;7.80;;
17390;SDS011;8813;54.444;18.446;2023-07-02T04:12:41;7.82;;;7.63;;
17390;SDS011;8813;54.444;18.446;2023-07-02T04:15:08;8.02;;;7.82;;
17390;SDS011;8813;54.444;18.446;2023-07-02T04:17:36;8.05;;;7.85;;
17390;SDS011;8813;54.444;18.446;2023-07-02T04:20:03;8.00;;;7.80;;
17390;SDS011;8813;54.444;18.446;2023-07-02T04:22:33;8.00;;;7.80;;
17390;SDS011;8813;54.444;18.446;2023-07-02T04:24:59;7.70;;;7.50;;
17390;SDS011;8813;54.444;18.446;2023-07-02T04:27:26;6.70;;;6.57;;
17390;SDS011;8813;54.444;18.446;2023-07-02T04:29:55;6.80;;;6.65;;
17390;SDS011;8813;54.444;18.446;2023-07-02T04:32:22;7.20;;;7.00;;
17390;SDS011;8813;54.444;18.446;2023-07-02T04:34:49;6.65;;;6.55;;
17390;SDS011;8813;54.444;18.446;2023-07-02T04:37:16;7.28;;;7.07;;
17390;SDS011;8813;54.444;18.446;2023-07-02T04:39:43;6.90;;;6.70;;
17390;SDS011;8813;54.444;18.446;2023-07-02T04:42:10;6.40;;;6.30;;
17390;SDS011;8813;54.444;18.446;2023-07-02T04:44:40;6.20;;;6.10;;
17390;SDS011;8813;54.444;18.446;2023-07-02T04:47:09;5.90;;;5.80;;
17390;SDS011;8813;54.444;18.446;2023-07-02T04:49:36;6.40;;;6.30;;
17390;SDS011;8813;54.444;18.446;2023-07-02T04:52:03;6.20;;;6.10;;
17390;SDS011;8813;54.444;18.446;2023-07-02T04:54:30;6.60;;;6.40;;
17390;SDS011;8813;54.444;18.446;2023-07-02T04:56:57;6.30;;;6.20;;
17390;SDS011;8813;54.444;18.446;2023-07-02T04:59:25;5.45;;;5.35;;
17390;SDS011;8813;54.444;18.446;2023-07-02T05:01:52;5.10;;;4.82;;
17390;SDS011;8813;54.444;18.446;2023-07-02T05:04:20;4.78;;;4.68;;
17390;SDS011;8813;54.444;18.446;2023-07-02T05:06:47;4.55;;;4.45;;
17390;SDS011;8813;54.444;18.446;2023-07-02T05:09:14;4.20;;;4.10;;
17390;SDS011;8813;54.444;18.446;2023-07-02T05:11:41;4.15;;;4.05;;
17390;SDS011;8813;54.444;18.446;2023-07-02T05:14:08;4.63;;;4.53;;
17390;SDS011;8813;54.444;18.446;2023-07-02T05:16:35;4.30;;;4.20;;
17390;SDS011;8813;54.444;18.446;2023-07-02T05:19:02;4.15;;;4.05;;
17390;SDS011;8813;54.444;18.446;2023-07-02T05:21:31;4.30;;;4.20;;
17390;SDS011;8813;54.444;18.446;2023-07-02T05:23:59;4.22;;;4.13;;
17390;SDS011;8813;54.444;18.446;2023-07-02T05:26:26;3.75;;;3.65;;
17390;SDS011;8813;54.444;18.446;2023-07-02T05:28:53;3.60;;;3.50;;
17390;SDS011;8813;54.444;18.446;2023-07-02T05:31:20;3.53;;;3.42;;
17390;SDS011;8813;54.444;18.446;2023-07-02T05:33:47;3.60;;;3.50;;
17390;SDS011;8813;54.444;18.446;2023-07-02T05:36:14;3.20;;;3.20;;
17390;SDS011;8813;54.444;18.446;2023-07-02T05:38:43;3.30;;;3.30;;
17390;SDS011;8813;54.444;18.446;2023-07-02T05:41:10;3.70;;;3.60;;
17390;SDS011;8813;54.444;18.446;2023-07-02T05:43:37;3.30;;;3.30;;
17390;SDS011;8813;54.444;18.446;2023-07-02T05:46:04;3.50;;;3.40;;
17390;SDS011;8813;54.444;18.446;2023-07-02T05:48:31;3.22;;;3.22;;
17390;SDS011;8813;54.444;18.446;2023-07-02T05:50:58;3.80;;;3.70;;
17390;SDS011;8813;54.444;18.446;2023-07-02T05:53:26;4.05;;;3.95;;
17390;SDS011;8813;54.444;18.446;2023-07-02T05:55:54;3.78;;;3.67;;
17390;SDS011;8813;54.444;18.446;2023-07-02T05:58:21;3.88;;;3.78;;
17390;SDS011;8813;54.444;18.446;2023-07-02T06:00:48;4.00;;;3.90;;
17390;SDS011;8813;54.444;18.446;2023-07-02T06:03:16;3.60;;;3.50;;
17390;SDS011;8813;54.444;18.446;2023-07-02T06:05:46;3.53;;;3.42;;
17390;SDS011;8813;54.444;18.446;2023-07-02T06:08:14;4.28;;;3.95;;
17390;SDS011;8813;54.444;18.446;2023-07-02T06:10:41;3.90;;;3.80;;
17390;SDS011;8813;54.444;18.446;2023-07-02T06:13:10;4.53;;;4.43;;
17390;SDS011;8813;54.444;18.446;2023-07-02T06:15:37;4.60;;;4.50;;
17390;SDS011;8813;54.444;18.446;2023-07-02T06:18:04;4.70;;;4.60;;
17390;SDS011;8813;54.444;18.446;2023-07-02T06:20:31;4.50;;;4.40;;
17390;SDS011;8813;54.444;18.446;2023-07-02T06:22:58;5.10;;;5.00;;
17390;SDS011;8813;54.444;18.446;2023-07-02T06:25:25;5.00;;;4.90;;
17390;SDS011;8813;54.444;18.446;2023-07-02T06:27:52;5.00;;;4.90;;
17390;SDS011;8813;54.444;18.446;2023-07-02T06:30:24;4.80;;;4.70;;
17390;SDS011;8813;54.444;18.446;2023-07-02T06:32:51;5.50;;;5.40;;
17390;SDS011;8813;54.444;18.446;2023-07-02T06:35:18;5.70;;;5.60;;
17390;SDS011;8813;54.444;18.446;2023-07-02T06:37:45;6.50;;;6.40;;
17390;SDS011;8813;54.444;18.446;2023-07-02T06:40:13;7.32;;;7.13;;
17390;SDS011;8813;54.444;18.446;2023-07-02T06:42:40;6.90;;;6.70;;
17390;SDS011;8813;54.444;18.446;2023-07-02T06:45:07;6.45;;;6.35;;
17390;SDS011;8813;54.444;18.446;2023-07-02T06:47:35;7.20;;;7.00;;
17390;SDS011;8813;54.444;18.446;2023-07-02T06:50:02;7.60;;;7.40;;
17390;SDS011;8813;54.444;18.446;2023-07-02T06:52:29;8.70;;;8.50;;
17390;SDS011;8813;54.444;18.446;2023-07-02T06:54:56;8.70;;;8.50;;
17390;SDS011;8813;54.444;18.446;2023-07-02T06:57:23;8.30;;;8.10;;
17390;SDS011;8813;54.444;18.446;2023-07-02T06:59:50;8.10;;;7.90;;
17390;SDS011;8813;54.444;18.446;2023-07-02T07:02:17;9.30;;;9.10;;
17390;SDS011;8813;54.444;18.446;2023-07-02T07:04:45;8.80;;;8.60;;
17390;SDS011;8813;54.444;18.446;2023-07-02T07:07:12;7.90;;;7.70;;
17390;SDS011;8813;54.444;18.446;2023-07-02T07:09:40;8.50;;;8.30;;
17390;SDS011;8813;54.444;18.446;2023-07-02T07:12:07;8.57;;;8.38;;
17390;SDS011;8813;54.444;18.446;2023-07-02T07:14:34;7.80;;;7.60;;
17390;SDS011;8813;54.444;18.446;2023-07-02T07:17:01;7.80;;;7.60;;
17390;SDS011;8813;54.444;18.446;2023-07-02T07:19:28;7.82;;;7.63;;
17390;SDS011;8813;54.444;18.446;2023-07-02T07:21:57;7.65;;;7.45;;
17390;SDS011;8813;54.444;18.446;2023-07-02T07:24:24;7.40;;;7.20;;
17390;SDS011;8813;54.444;18.446;2023-07-02T07:26:51;5.47;;;5.38;;
17390;SDS011;8813;54.444;18.446;2023-07-02T07:29:17;4.20;;;4.10;;
17390;SDS011;8813;54.444;18.446;2023-07-02T07:31:45;3.60;;;3.50;;
17390;SDS011;8813;54.444;18.446;2023-07-02T07:34:12;3.67;;;3.58;;
17390;SDS011;8813;54.444;18.446;2023-07-02T07:36:39;3.38;;;3.28;;
17390;SDS011;8813;54.444;18.446;2023-07-02T07:39:08;3.60;;;3.50;;
17390;SDS011;8813;54.444;18.446;2023-07-02T07:41:34;3.03;;;3.03;;
17390;SDS011;8813;54.444;18.446;2023-07-02T07:44:02;3.30;;;3.20;;
17390;SDS011;8813;54.444;18.446;2023-07-02T07:46:29;3.30;;;3.22;;
17390;SDS011;8813;54.444;18.446;2023-07-02T07:48:56;2.80;;;2.80;;
17390;SDS011;8813;54.444;18.446;2023-07-02T07:51:22;3.10;;;3.10;;
17390;SDS011;8813;54.444;18.446;2023-07-02T07:53:49;3.65;;;3.55;;
17390;SDS011;8813;54.444;18.446;2023-07-02T07:56:18;3.88;;;3.78;;
17390;SDS011;8813;54.444;18.446;2023-07-02T07:58:45;3.97;;;3.78;;
17390;SDS011;8813;54.444;18.446;2023-07-02T08:01:12;2.90;;;2.90;;
17390;SDS011;8813;54.444;18.446;2023-07-02T08:03:40;3.58;;;3.47;;
17390;SDS011;8813;54.444;18.446;2023-07-02T08:06:07;3.10;;;3.10;;
17390;SDS011;8813;54.444;18.446;2023-07-02T08:08:34;3.10;;;3.10;;
17390;SDS011;8813;54.444;18.446;2023-07-02T08:11:01;3.58;;;3.47;;
17390;SDS011;8813;54.444;18.446;2023-07-02T08:13:29;3.50;;;3.40;;
17390;SDS011;8813;54.444;18.446;2023-07-02T08:15:57;3.72;;;3.50;;
17390;SDS011;8813;54.444;18.446;2023-07-02T08:18:24;3.53;;;3.42;;
17390;SDS011;8813;54.444;18.446;2023-07-02T08:20:51;2.60;;;2.60;;
17390;SDS011;8813;54.444;18.446;2023-07-02T08:23:18;2.60;;;2.60;;
17390;SDS011;8813;54.444;18.446;2023-07-02T08:25:45;2.30;;;2.30;;
17390;SDS011;8813;54.444;18.446;2023-07-02T08:28:13;2.72;;;2.72;;
17390;SDS011;8813;54.444;18.446;2023-07-02T08:30:42;2.50;;;2.50;;
17390;SDS011;8813;54.444;18.446;2023-07-02T08:33:09;2.72;;;2.72;;
17390;SDS011;8813;54.444;18.446;2023-07-02T08:35:36;3.45;;;3.25;;
17390;SDS011;8813;54.444;18.446;2023-07-02T08:38:03;2.67;;;2.63;;
17390;SDS011;8813;54.444;18.446;2023-07-02T08:40:30;2.25;;;2.25;;
17390;SDS011;8813;54.444;18.446;2023-07-02T08:42:57;2.33;;;2.33;;
17390;SDS011;8813;54.444;18.446;2023-07-02T08:45:26;2.65;;;2.47;;
17390;SDS011;8813;54.444;18.446;2023-07-02T08:47:55;2.40;;;2.40;;
17390;SDS011;8813;54.444;18.446;2023-07-02T08:50:23;2.00;;;2.00;;
17390;SDS011;8813;54.444;18.446;2023-07-02T08:52:50;1.90;;;1.90;;
17390;SDS011;8813;54.444;18.446;2023-07-02T08:55:20;1.70;;;1.70;;
17390;SDS011;8813;54.444;18.446;2023-07-02T08:57:49;1.50;;;1.50;;
17390;SDS011;8813;54.444;18.446;2023-07-02T09:00:20;2.25;;;2.15;;
17390;SDS011;8813;54.444;18.446;2023-07-02T09:02:48;2.47;;;1.85;;
17390;SDS011;8813;54.444;18.446;2023-07-02T09:05:22;9.18;;;2.58;;
17390;SDS011;8813;54.444;18.446;2023-07-02T09:07:50;1.63;;;1.63;;
17390;SDS011;8813;54.444;18.446;2023-07-02T09:10:25;1.50;;;1.50;;
17390;SDS011;8813;54.444;18.446;2023-07-02T09:13:04;1.38;;;1.38;;
17390;SDS011;8813;54.444;18.446;2023-07-02T09:15:35;2.22;;;2.13;;
17390;SDS011;8813;54.444;18.446;2023-07-02T09:18:13;1.60;;;1.27;;
17390;SDS011;8813;54.444;18.446;2023-07-02T09:20:42;1.40;;;1.40;;
17390;SDS011;8813;54.444;18.446;2023-07-02T09:23:09;1.23;;;1.23;;
17390;SDS011;8813;54.444;18.446;2023-07-02T09:25:36;4.22;;;1.67;;
17390;SDS011;8813;54.444;18.446;2023-07-02T09:28:13;1.55;;;1.55;;
17390;SDS011;8813;54.444;18.446;2023-07-02T09:30:48;1.20;;;1.20;;
17390;SDS011;8813;54.444;18.446;2023-07-02T09:33:16;1.67;;;1.58;;
17390;SDS011;8813;54.444;18.446;2023-07-02T09:35:45;1.20;;;1.20;;
17390;SDS011;8813;54.444;18.446;2023-07-02T09:38:12;1.20;;;1.20;;
17390;SDS011;8813;54.444;18.446;2023-07-02T09:40:43;1.40;;;1.40;;
17390;SDS011;8813;54.444;18.446;2023-07-02T09:43:12;1.90;;;1.88;;
17390;SDS011;8813;54.444;18.446;2023-07-02T09:45:40;1.48;;;1.38;;
17390;SDS011;8813;54.444;18.446;2023-07-02T09:48:09;1.20;;;1.20;;
17390;SDS011;8813;54.444;18.446;2023-07-02T09:50:38;1.80;;;1.70;;
17390;SDS011;8813;54.444;18.446;2023-07-02T09:53:07;1.77;;;1.67;;
17390;SDS011;8813;54.444;18.446;2023-07-02T09:55:34;2.13;;;2.03;;
17390;SDS011;8813;54.444;18.446;2023-07-02T09:58:01;1.42;;;1.42;;
17390;SDS011;8813;54.444;18.446;2023-07-02T10:00:28;1.48;;;1.48;;
17390;SDS011;8813;54.444;18.446;2023-07-02T10:02:55;1.25;;;1.25;;
17390;SDS011;8813;54.444;18.446;2023-07-02T10:05:26;1.30;;;1.30;;
17390;SDS011;8813;54.444;18.446;2023-07-02T10:07:54;1.77;;;1.77;;
17390;SDS011;8813;54.444;18.446;2023-07-02T10:10:27;1.05;;;1.05;;
17390;SDS011;8813;54.444;18.446;2023-07-02T10:12:54;1.40;;;1.30;;
17390;SDS011;8813;54.444;18.446;2023-07-02T10:15:25;1.20;;;1.20;;
17390;SDS011;8813;54.444;18.446;2023-07-02T10:17:56;1.27;;;1.27;;
17390;SDS011;8813;54.444;18.446;2023-07-02T10:20:33;1.05;;;1.05;;
17390;SDS011;8813;54.444;18.446;2023-07-02T10:23:02;1.15;;;1.15;;
17390;SDS011;8813;54.444;18.446;2023-07-02T10:25:33;1.30;;;1.30;;
17390;SDS011;8813;54.444;18.446;2023-07-02T10:28:13;1.33;;;1.33;;
17390;SDS011;8813;54.444;18.446;2023-07-02T10:30:42;1.33;;;1.33;;
17390;SDS011;8813;54.444;18.446;2023-07-02T10:33:10;1.65;;;1.65;;
17390;SDS011;8813;54.444;18.446;2023-07-02T10:35:38;1.52;;;1.52;;
17390;SDS011;8813;54.444;18.446;2023-07-02T10:38:07;1.33;;;1.33;;
17390;SDS011;8813;54.444;18.446;2023-07-02T10:40:35;1.48;;;1.38;;
17390;SDS011;8813;54.444;18.446;2023-07-02T10:43:03;14.73;;;1.88;;
17390;SDS011;8813;54.444;18.446;2023-07-02T10:45:31;1.48;;;1.45;;
17390;SDS011;8813;54.444;18.446;2023-07-02T10:47:58;1.23;;;1.23;;
17390;SDS011;8813;54.444;18.446;2023-07-02T10:50:26;1.75;;;1.65;;
17390;SDS011;8813;54.444;18.446;2023-07-02T10:52:53;1.60;;;1.50;;
17390;SDS011;8813;54.444;18.446;2023-07-02T10:55:20;1.10;;;1.10;;
17390;SDS011;8813;54.444;18.446;2023-07-02T10:57:49;1.35;;;1.35;;
17390;SDS011;8813;54.444;18.446;2023-07-02T11:00:17;1.40;;;1.40;;
17390;SDS011;8813;54.444;18.446;2023-07-02T11:02:45;1.45;;;1.45;;
17390;SDS011;8813;54.444;18.446;2023-07-02T11:05:12;2.33;;;1.65;;
17390;SDS011;8813;54.444;18.446;2023-07-02T11:07:39;1.80;;;1.02;;
17390;SDS011;8813;54.444;18.446;2023-07-02T11:10:09;1.20;;;1.20;;
17390;SDS011;8813;54.444;18.446;2023-07-02T11:12:43;3.33;;;1.45;;
17390;SDS011;8813;54.444;18.446;2023-07-02T11:15:12;1.35;;;1.35;;
17390;SDS011;8813;54.444;18.446;2023-07-02T11:17:40;1.40;;;1.30;;
17390;SDS011;8813;54.444;18.446;2023-07-02T11:20:07;1.55;;;1.23;;
17390;SDS011;8813;54.444;18.446;2023-07-02T11:22:35;1.00;;;1.00;;
17390;SDS011;8813;54.444;18.446;2023-07-02T11:25:11;1.02;;;1.02;;
17390;SDS011;8813;54.444;18.446;2023-07-02T11:27:39;1.10;;;1.10;;
17390;SDS011;8813;54.444;18.446;2023-07-02T11:30:08;1.20;;;1.20;;
17390;SDS011;8813;54.444;18.446;2023-07-02T11:32:48;1.95;;;1.85;;
17390;SDS011;8813;54.444;18.446;2023-07-02T11:35:16;1.75;;;1.75;;
17390;SDS011;8813;54.444;18.446;2023-07-02T11:37:44;1.23;;;1.23;;
17390;SDS011;8813;54.444;18.446;2023-07-02T11:40:11;1.17;;;1.17;;
17390;SDS011;8813;54.444;18.446;2023-07-02T11:42:40;2.45;;;2.25;;
17390;SDS011;8813;54.444;18.446;2023-07-02T11:45:09;1.30;;;1.30;;
17390;SDS011;8813;54.444;18.446;2023-07-02T11:47:37;2.85;;;2.25;;
17390;SDS011;8813;54.444;18.446;2023-07-02T11:50:07;1.80;;;1.70;;
17390;SDS011;8813;54.444;18.446;2023-07-02T11:52:36;1.42;;;1.42;;
17390;SDS011;8813;54.444;18.446;2023-07-02T11:55:05;2.60;;;1.20;;
17390;SDS011;8813;54.444;18.446;2023-07-02T11:57:33;2.10;;;2.00;;
17390;SDS011;8813;54.444;18.446;2023-07-02T12:00:00;1.30;;;1.30;;
17390;SDS011;8813;54.444;18.446;2023-07-02T12:02:28;1.45;;;1.40;;
17390;SDS011;8813;54.444;18.446;2023-07-02T12:04:55;1.30;;;1.30;;
17390;SDS011;8813;54.444;18.446;2023-07-02T12:07:24;1.23;;;1.23;;
17390;SDS011;8813;54.444;18.446;2023-07-02T12:09:51;1.27;;;1.27;;
17390;SDS011;8813;54.444;18.446;2023-07-02T12:12:18;1.60;;;1.58;;
17390;SDS011;8813;54.444;18.446;2023-07-02T12:14:45;1.30;;;1.30;;
17390;SDS011;8813;54.444;18.446;2023-07-02T12:17:12;2.38;;;2.28;;
17390;SDS011;8813;54.444;18.446;2023-07-02T12:19:40;1.45;;;1.45;;
17390;SDS011;8813;54.444;18.446;2023-07-02T12:22:07;1.75;;;1.50;;
17390;SDS011;8813;54.444;18.446;2023-07-02T12:24:36;1.95;;;1.75;;
17390;SDS011;8813;54.444;18.446;2023-07-02T12:27:03;1.42;;;1.42;;
17390;SDS011;8813;54.444;18.446;2023-07-02T12:29:30;1.70;;;1.60;;
17390;SDS011;8813;54.444;18.446;2023-07-02T12:31:57;1.00;;;1.00;;
17390;SDS011;8813;54.444;18.446;2023-07-02T12:34:24;1.73;;;1.73;;
17390;SDS011;8813;54.444;18.446;2023-07-02T12:36:52;2.13;;;2.03;;
17390;SDS011;8813;54.444;18.446;2023-07-02T12:39:19;3.08;;;1.55;;
17390;SDS011;8813;54.444;18.446;2023-07-02T12:41:47;1.50;;;1.50;;
17390;SDS011;8813;54.444;18.446;2023-07-02T12:44:14;1.50;;;1.40;;
17390;SDS011;8813;54.444;18.446;2023-07-02T12:46:41;1.95;;;1.20;;
17390;SDS011;8813;54.444;18.446;2023-07-02T12:49:08;4.88;;;1.90;;
17390;SDS011;8813;54.444;18.446;2023-07-02T12:51:35;1.83;;;1.73;;
17390;SDS011;8813;54.444;18.446;2023-07-02T12:54:02;1.63;;;1.58;;
17390;SDS011;8813;54.444;18.446;2023-07-02T12:56:29;4.03;;;1.70;;
17390;SDS011;8813;54.444;18.446;2023-07-02T12:58:58;2.03;;;1.92;;
17390;SDS011;8813;54.444;18.446;2023-07-02T13:01:25;1.73;;;1.63;;
17390;SDS011;8813;54.444;18.446;2023-07-02T13:03:52;1.25;;;1.25;;
17390;SDS011;8813;54.444;18.446;2023-07-02T13:06:19;1.98;;;1.88;;
17390;SDS011;8813;54.444;18.446;2023-07-02T13:08:46;1.15;;;1.15;;
17390;SDS011;8813;54.444;18.446;2023-07-02T13:11:13;1.30;;;1.30;;
17390;SDS011;8813;54.444;18.446;2023-07-02T13:13:40;1.30;;;1.20;;
17390;SDS011;8813;54.444;18.446;2023-07-02T13:16:09;1.95;;;1.90;;
17390;SDS011;8813;54.444;18.446;2023-07-02T13:18:36;1.88;;;1.63;;
17390;SDS011;8813;54.444;18.446;2023-07-02T13:21:03;1.55;;;1.50;;
17390;SDS011;8813;54.444;18.446;2023-07-02T13:23:30;1.83;;;1.67;;
17390;SDS011;8813;54.444;18.446;2023-07-02T13:25:57;2.00;;;1.27;;
17390;SDS011;8813;54.444;18.446;2023-07-02T13:28:24;2.88;;;1.40;;
17390;SDS011;8813;54.444;18.446;2023-07-02T13:30:53;1.20;;;1.20;;
17390;SDS011;8813;54.444;18.446;2023-07-02T13:33:21;0.85;;;0.85;;
17390;SDS011;8813;54.444;18.446;2023-07-02T13:35:48;2.58;;;1.85;;
17390;SDS011;8813;54.444;18.446;2023-07-02T13:38:15;1.83;;;1.73;;
17390;SDS011;8813;54.444;18.446;2023-07-02T13:40:42;0.90;;;0.90;;
17390;SDS011;8813;54.444;18.446;2023-07-02T13:43:09;1.20;;;1.20;;
17390;SDS011;8813;54.444;18.446;2023-07-02T13:45:36;0.80;;;0.80;;
17390;SDS011;8813;54.444;18.446;2023-07-02T13:48:03;2.00;;;1.20;;
17390;SDS011;8813;54.444;18.446;2023-07-02T13:50:32;1.95;;;1.85;;
17390;SDS011;8813;54.444;18.446;2023-07-02T13:52:59;3.47;;;1.90;;
17390;SDS011;8813;54.444;18.446;2023-07-02T13:55:26;1.40;;;1.30;;
17390;SDS011;8813;54.444;18.446;2023-07-02T13:57:54;1.25;;;1.17;;
17390;SDS011;8813;54.444;18.446;2023-07-02T14:00:23;1.50;;;1.50;;
17390;SDS011;8813;54.444;18.446;2023-07-02T14:02:50;2.15;;;1.85;;
17390;SDS011;8813;54.444;18.446;2023-07-02T14:05:18;4.70;;;2.42;;
17390;SDS011;8813;54.444;18.446;2023-07-02T14:07:45;1.77;;;1.50;;
17390;SDS011;8813;54.444;18.446;2023-07-02T14:10:12;1.23;;;1.23;;
17390;SDS011;8813;54.444;18.446;2023-07-02T14:12:40;1.17;;;1.15;;
17390;SDS011;8813;54.444;18.446;2023-07-02T14:15:09;7.68;;;1.63;;
17390;SDS011;8813;54.444;18.446;2023-07-02T14:17:37;1.10;;;1.10;;
17390;SDS011;8813;54.444;18.446;2023-07-02T14:20:06;1.17;;;1.17;;
17390;SDS011;8813;54.444;18.446;2023-07-02T14:22:35;1.45;;;1.42;;
17390;SDS011;8813;54.444;18.446;2023-07-02T14:25:02;1.83;;;1.73;;
17390;SDS011;8813;54.444;18.446;2023-07-02T14:27:29;1.33;;;1.33;;
17390;SDS011;8813;54.444;18.446;2023-07-02T14:29:56;1.15;;;1.13;;
17390;SDS011;8813;54.444;18.446;2023-07-02T14:32:26;1.23;;;1.10;;
17390;SDS011;8813;54.444;18.446;2023-07-02T14:34:54;1.25;;;1.25;;
17390;SDS011;8813;54.444;18.446;2023-07-02T14:37:21;1.83;;;1.52;;
17390;SDS011;8813;54.444;18.446;2023-07-02T14:39:48;4.22;;;1.98;;
17390;SDS011;8813;54.444;18.446;2023-07-02T14:42:15;1.55;;;1.55;;
17390;SDS011;8813;54.444;18.446;2023-07-02T14:44:42;2.53;;;1.60;;
17390;SDS011;8813;54.444;18.446;2023-07-02T14:47:08;2.03;;;1.92;;
17390;SDS011;8813;54.444;18.446;2023-07-02T14:49:36;1.50;;;1.40;;
17390;SDS011;8813;54.444;18.446;2023-07-02T14:52:05;1.70;;;1.60;;